Scorpio — WDF2159 — position and weather

sailwx.info

Track history (hours):
 
Tides and Currents Weather Stations Pressure Air Temp Water Temp Dewpoint Dewpoint Depression Visibility Wind Speed Wind Dir Waves Ship Positions

Scorpio

Owner: San Francisco Bay Area Water Emergency Transportation Authority, San Francisco, CA. More information available from US FCC via Universal Licensing System and Coast Guard Vessel Documentation Center.

Last reported at 2017-Oct-13 19:39 UTC. Time now 2017-Oct-19 16:26 UTC.
Position N 37°47' W 122°17'.

Length 35 m.

Type: Ship (hazmat cat A). MMSI: 367425520.

Date/timePositionNaut miles runAvg speedWind from/ knotsBaromVisibWave heightAir tempDewpointWater temp
2017-Oct-13 19:39N 37°47' W 122°17'0 0.4
2017-Oct-13 19:30N 37°47' W 122°17'611.3
2017-Oct-13 18:59N 37°49' W 122°25'0 0.0
2017-Oct-13 18:29N 37°49' W 122°25'1 2.0
2017-Oct-13 18:00N 37°49' W 122°24'5 9.4
2017-Oct-13 17:29N 37°47' W 122°18'1 1.1
2017-Oct-13 17:00N 37°48' W 122°17'510.3
2017-Oct-13 16:30N 37°48' W 122°24'814.8
2017-Oct-13 15:58N 37°40' W 122°23'816.2
2017-Oct-13 15:30N 37°47' W 122°21'2 4.6
2017-Oct-13 15:00N 37°47' W 122°18'917.1
2017-Oct-13 14:30N 37°40' W 122°23'612.2
2017-Oct-13 14:00N 37°46' W 122°22'4 7.5
2017-Oct-13 13:30N 37°48' W 122°18'5 9.6
2017-Oct-13 12:59N 37°48' W 122°24'0 0.0
2017-Oct-13 03:21N 37°48' W 122°24'412.7
2017-Oct-13 03:00N 37°48' W 122°18'0 0.8
2017-Oct-13 02:31N 37°48' W 122°19'816.7
2017-Oct-13 02:00N 37°40' W 122°23'714.2
2017-Oct-13 01:30N 37°44' W 122°16'714.5
2017-Oct-13 01:01N 37°48' W 122°24'5 9.2
2017-Oct-13 00:30N 37°47' W 122°18'1 1.5
2017-Oct-13 00:00N 37°48' W 122°17'714.3
2017-Oct-12 23:31N 37°41' W 122°21'2 3.9
2017-Oct-12 23:00N 37°40' W 122°23'815.8
2017-Oct-12 22:31N 37°48' W 122°24'0 0.8
2017-Oct-12 22:00N 37°48' W 122°24'0 0.0
2017-Oct-12 21:30N 37°48' W 122°24'0 0.0
2017-Oct-12 21:00N 37°48' W 122°24'1 1.8
2017-Oct-12 20:30N 37°49' W 122°25'0 0.0
2017-Oct-12 20:00N 37°49' W 122°25'0 0.0
2017-Oct-12 19:30N 37°49' W 122°25'0 0.1
2017-Oct-12 19:00N 37°49' W 122°25'1 1.8
2017-Oct-12 18:30N 37°48' W 122°24'0 0.0
2017-Oct-12 18:00N 37°48' W 122°24'0 0.0
2017-Oct-12 17:30N 37°48' W 122°24'0 0.0
2017-Oct-12 17:00N 37°48' W 122°24'1 1.2
2017-Oct-12 16:31N 37°48' W 122°23'815.0
2017-Oct-12 15:59N 37°40' W 122°23'817.7
2017-Oct-12 15:30N 37°48' W 122°19'1 2.9
2017-Oct-12 15:00N 37°47' W 122°18'917.1
2017-Oct-12 14:30N 37°40' W 122°23'612.0
2017-Oct-12 14:00N 37°46' W 122°21'3 6.8
2017-Oct-12 13:30N 37°48' W 122°18'5 9.7
2017-Oct-12 12:59N 37°48' W 122°24'0 0.0
2017-Oct-12 03:19N 37°48' W 122°24'411.5
2017-Oct-12 03:01N 37°48' W 122°19'1 1.6
2017-Oct-12 02:31N 37°48' W 122°18'816.8
2017-Oct-12 02:00N 37°40' W 122°23'714.4
2017-Oct-12 01:31N 37°44' W 122°15'714.4
2017-Oct-12 01:00N 37°48' W 122°24'5 8.9
2017-Oct-12 00:29N 37°47' W 122°18'1 1.4
2017-Oct-11 23:59N 37°48' W 122°17'714.8
2017-Oct-11 23:30N 37°41' W 122°21'2 3.9
2017-Oct-11 22:59N 37°40' W 122°23'815.6
2017-Oct-11 22:29N 37°48' W 122°24'0 0.9
2017-Oct-11 21:59N 37°48' W 122°24'0 0.0
2017-Oct-11 21:29N 37°48' W 122°24'0 0.0
2017-Oct-11 20:59N 37°48' W 122°24'0 0.0
2017-Oct-11 20:29N 37°48' W 122°24'0 0.0
2017-Oct-11 19:59N 37°48' W 122°24'0 0.0
2017-Oct-11 19:29N 37°48' W 122°24'0 0.0
2017-Oct-11 18:59N 37°48' W 122°24'0 0.0
2017-Oct-11 18:29N 37°48' W 122°24'0 0.0
2017-Oct-11 17:59N 37°48' W 122°24'0 0.0
2017-Oct-11 17:29N 37°48' W 122°24'0 0.0
2017-Oct-11 16:59N 37°48' W 122°24'5 0.3
2017-Oct-11 00:01N 37°48' W 122°17'815.6
2017-Oct-10 23:31N 37°41' W 122°21'1 2.4
2017-Oct-10 23:00N 37°40' W 122°23'815.9
2017-Oct-10 22:30N 37°48' W 122°24'0 0.8
2017-Oct-10 21:58N 37°48' W 122°24'0 0.0
2017-Oct-10 21:28N 37°48' W 122°24'0 0.0
2017-Oct-10 20:58N 37°48' W 122°24'0 0.0
2017-Oct-10 20:25N 37°48' W 122°24'0 0.0
2017-Oct-10 19:58N 37°48' W 122°24'0 0.0
2017-Oct-10 19:25N 37°48' W 122°24'0 0.0
2017-Oct-10 18:52N 37°48' W 122°24'0 0.0
2017-Oct-10 18:25N 37°48' W 122°24'1 2.3
2017-Oct-10 18:00N 37°49' W 122°25'0 0.2
2017-Oct-10 17:30N 37°49' W 122°25'0 0.0
2017-Oct-10 17:00N 37°49' W 122°25'3 5.2
2017-Oct-10 16:30N 37°47' W 122°22'714.2
2017-Oct-10 16:00N 37°40' W 122°23'816.9
2017-Oct-10 15:30N 37°48' W 122°19'0 0.4
2017-Oct-10 15:00N 37°48' W 122°19'1 1.0
2017-Oct-10 14:00N 37°48' W 122°20'2 3.6
2017-Oct-10 13:29N 37°47' W 122°18'5 9.8
2017-Oct-10 12:59N 37°48' W 122°24'0 0.0
2017-Oct-10 03:18N 37°48' W 122°24'412.2
2017-Oct-10 03:01N 37°48' W 122°19'0 0.4
2017-Oct-10 02:31N 37°48' W 122°19'816.6
2017-Oct-10 02:00N 37°40' W 122°23'714.4
2017-Oct-10 01:31N 37°44' W 122°15'714.5
2017-Oct-10 01:00N 37°48' W 122°24'5 9.3
2017-Oct-10 00:30N 37°47' W 122°18'1 1.5
2017-Oct-10 00:01N 37°48' W 122°17'714.8
2017-Oct-09 23:31N 37°41' W 122°21'2 3.3
2017-Oct-09 23:01N 37°40' W 122°22'816.0
2017-Oct-09 22:31N 37°48' W 122°23'0 0.8
2017-Oct-09 22:00N 37°48' W 122°24'0 0.1
2017-Oct-09 21:30N 37°48' W 122°24'0 0.0
2017-Oct-09 21:00N 37°48' W 122°24'0 0.0
2017-Oct-09 20:31N 37°48' W 122°24'0 0.0
2017-Oct-09 20:00N 37°48' W 122°24'0 0.0
2017-Oct-09 19:30N 37°48' W 122°24'1 1.9
2017-Oct-09 19:00N 37°49' W 122°25'0 0.0
2017-Oct-09 18:30N 37°49' W 122°25'1 2.7
2017-Oct-09 18:01N 37°48' W 122°23'5 9.0
2017-Oct-09 17:30N 37°47' W 122°18'0 0.7
2017-Oct-09 17:00N 37°48' W 122°17'4 8.9
2017-Oct-09 16:31N 37°47' W 122°23'815.1
2017-Oct-09 16:00N 37°40' W 122°23'816.9
2017-Oct-09 15:31N 37°48' W 122°19'1 2.0
2017-Oct-09 15:01N 37°47' W 122°18'917.1
2017-Oct-09 14:30N 37°40' W 122°23'714.0
2017-Oct-09 14:01N 37°47' W 122°21'3 5.2
2017-Oct-09 13:31N 37°47' W 122°18'5 9.8
2017-Oct-09 13:01N 37°48' W 122°24'0 0.0
2017-Oct-09 02:50N 37°48' W 122°24'1 2.8
2017-Oct-09 02:30N 37°49' W 122°25'4 8.9
2017-Oct-09 02:01N 37°48' W 122°19'2 3.3
2017-Oct-09 01:30N 37°48' W 122°17'510.1
2017-Oct-09 01:01N 37°48' W 122°24'1 2.6
2017-Oct-09 00:30N 37°49' W 122°25'1 2.6
2017-Oct-09 00:01N 37°48' W 122°24'510.6
2017-Oct-08 23:31N 37°48' W 122°17'510.5
2017-Oct-08 23:00N 37°48' W 122°23'1 2.6
2017-Oct-08 22:30N 37°49' W 122°25'1 1.8
2017-Oct-08 22:00N 37°48' W 122°24'0 0.0
2017-Oct-08 21:30N 37°48' W 122°24'0 0.0
2017-Oct-07 03:23N 37°48' W 122°24'513.4
2017-Oct-07 03:00N 37°48' W 122°18'2 3.6
2017-Oct-07 02:31N 37°48' W 122°20'815.9
2017-Oct-07 01:59N 37°40' W 122°23'713.9
2017-Oct-07 01:28N 37°44' W 122°15'714.7
2017-Oct-07 00:58N 37°48' W 122°24'3 5.9
2017-Oct-07 00:30N 37°48' W 122°20'3 5.0
2017-Oct-06 23:59N 37°48' W 122°17'715.5
2017-Oct-06 23:30N 37°41' W 122°21'2 3.5
2017-Oct-06 23:01N 37°40' W 122°23'815.1
2017-Oct-06 22:29N 37°48' W 122°24'0 0.9
2017-Oct-06 22:00N 37°48' W 122°24'0 0.0
2017-Oct-06 21:30N 37°48' W 122°24'0 0.0
2017-Oct-06 21:00N 37°48' W 122°24'0 0.0
2017-Oct-06 20:30N 37°48' W 122°24'0 0.0
2017-Oct-06 19:57N 37°48' W 122°24'0 0.0
2017-Oct-06 19:27N 37°48' W 122°24'0 0.0
2017-Oct-06 18:57N 37°48' W 122°24'1 2.1
2017-Oct-06 18:30N 37°49' W 122°25'1 2.9
2017-Oct-06 18:00N 37°48' W 122°23'5 8.9
2017-Oct-06 17:30N 37°48' W 122°18'0 0.5
2017-Oct-06 17:00N 37°47' W 122°18'4 8.4
2017-Oct-06 16:30N 37°48' W 122°23'814.3
2017-Oct-06 15:58N 37°40' W 122°23'716.0
2017-Oct-06 15:30N 37°47' W 122°21'2 4.8
2017-Oct-06 15:00N 37°47' W 122°18'816.5
2017-Oct-06 14:30N 37°40' W 122°22'611.6
2017-Oct-06 14:00N 37°46' W 122°21'4 7.1
2017-Oct-06 13:31N 37°48' W 122°17'510.4
2017-Oct-06 13:00N 37°48' W 122°24'0 0.0
2017-Oct-06 03:23N 37°48' W 122°24'411.4
2017-Oct-06 03:01N 37°48' W 122°19'1 1.3
2017-Oct-06 02:31N 37°48' W 122°19'816.6
2017-Oct-06 02:00N 37°40' W 122°23'714.4
2017-Oct-06 01:30N 37°44' W 122°15'714.6
2017-Oct-06 01:01N 37°48' W 122°24'4 7.5
2017-Oct-06 00:31N 37°48' W 122°19'2 3.1
2017-Oct-06 00:00N 37°48' W 122°17'713.9
2017-Oct-05 23:30N 37°42' W 122°21'2 4.4
2017-Oct-05 23:00N 37°40' W 122°23'815.8
2017-Oct-05 22:30N 37°48' W 122°24'0 0.9
2017-Oct-05 22:00N 37°48' W 122°24'0 0.0
2017-Oct-05 21:30N 37°48' W 122°24'0 0.0
2017-Oct-05 20:59N 37°48' W 122°24'0 0.0
2017-Oct-05 20:29N 37°48' W 122°24'0 0.0
2017-Oct-05 19:59N 37°48' W 122°24'0 0.0
2017-Oct-05 19:29N 37°48' W 122°24'0 0.0
2017-Oct-05 18:59N 37°48' W 122°24'0 0.0
2017-Oct-05 18:29N 37°48' W 122°24'0 0.0
2017-Oct-05 17:59N 37°48' W 122°24'1 1.8
2017-Oct-05 17:30N 37°49' W 122°25'0 0.4
2017-Oct-05 17:00N 37°49' W 122°25'6 4.2
2017-Oct-05 15:28N 37°48' W 122°17'3 6.3
2017-Oct-05 15:00N 37°47' W 122°20'815.2
2017-Oct-05 14:29N 37°40' W 122°23'817.3
2017-Oct-05 14:00N 37°48' W 122°19'1 2.8
2017-Oct-05 13:29N 37°47' W 122°18'5 7.6
2017-Oct-05 12:50N 37°48' W 122°24'0 0.0
2017-Oct-05 03:28N 37°48' W 122°24'4 9.1
2017-Oct-05 03:01N 37°48' W 122°19'1 1.9
2017-Oct-05 02:31N 37°48' W 122°20'816.7
2017-Oct-05 02:01N 37°40' W 122°23'714.2
2017-Oct-05 01:30N 37°44' W 122°15'714.4
2017-Oct-05 01:00N 37°48' W 122°24'4 7.6
2017-Oct-05 00:31N 37°48' W 122°19'2 3.1
2017-Oct-05 00:01N 37°48' W 122°17'714.0
2017-Oct-04 23:31N 37°42' W 122°21'2 4.2
2017-Oct-04 23:01N 37°40' W 122°23'815.6
2017-Oct-04 22:30N 37°48' W 122°24'0 0.9
2017-Oct-04 22:00N 37°48' W 122°24'0 0.0
2017-Oct-04 21:30N 37°48' W 122°24'1 1.8
2017-Oct-04 21:00N 37°49' W 122°25'0 0.0
2017-Oct-04 20:30N 37°49' W 122°25'0 0.0
2017-Oct-04 20:00N 37°49' W 122°25'1 1.7
2017-Oct-04 19:29N 37°48' W 122°24'0 0.0
2017-Oct-04 18:53N 37°48' W 122°24'0 0.0
2017-Oct-04 18:26N 37°48' W 122°24'0 0.0
2017-Oct-04 17:59N 37°48' W 122°24'0 0.0
2017-Oct-04 17:29N 37°48' W 122°24'0 0.0
2017-Oct-04 16:59N 37°48' W 122°24'1 2.2
2017-Oct-04 16:30N 37°47' W 122°23'814.0
2017-Oct-04 15:58N 37°40' W 122°23'818.5
2017-Oct-04 15:30N 37°48' W 122°19'1 1.2
2017-Oct-04 15:01N 37°48' W 122°18'816.6
2017-Oct-04 14:30N 37°40' W 122°23'816.2
2017-Oct-04 14:01N 37°48' W 122°20'2 4.4
2017-Oct-04 13:30N 37°48' W 122°18'5 9.1
2017-Oct-04 12:58N 37°48' W 122°24'0 0.0
2017-Oct-04 03:20N 37°48' W 122°24'3 9.5
2017-Oct-04 03:01N 37°48' W 122°20'1 1.3
2017-Oct-04 02:31N 37°48' W 122°19'816.7
2017-Oct-04 02:00N 37°40' W 122°23'714.3
2017-Oct-04 01:31N 37°44' W 122°15'714.6
2017-Oct-04 01:00N 37°48' W 122°24'5 9.3
2017-Oct-04 00:30N 37°47' W 122°18'1 1.4
2017-Oct-04 00:00N 37°48' W 122°17'714.8
2017-Oct-03 23:30N 37°41' W 122°21'2 3.5
2017-Oct-03 23:00N 37°40' W 122°23'815.9
2017-Oct-03 22:30N 37°48' W 122°24'0 0.8
2017-Oct-03 22:00N 37°48' W 122°24'0 0.0
2017-Oct-03 21:30N 37°48' W 122°24'1 1.8
2017-Oct-03 21:00N 37°49' W 122°25'0 0.0
2017-Oct-03 20:29N 37°49' W 122°25'0 0.0
2017-Oct-03 19:59N 37°49' W 122°25'  
Track history (hours):
 
Tides and Currents Weather Stations Pressure Air Temp Water Temp Dewpoint Dewpoint Depression Visibility Wind Speed Wind Dir Waves Ship Positions

Scorpio

Owner: San Francisco Bay Area Water Emergency Transportation Authority, San Francisco, CA. More information available from US FCC via Universal Licensing System and Coast Guard Vessel Documentation Center.

Last reported at 2017-Oct-13 19:39 UTC. Time now 2017-Oct-19 16:26 UTC.
Position N 37°47' W 122°17'.

Length 35 m.

Type: Ship (hazmat cat A). MMSI: 367425520.

Date/timePositionNaut miles runAvg speedWind from/ knotsBaromVisibWave heightAir tempDewpointWater temp
2017-Oct-13 19:39N 37°47' W 122°17'0 0.4
2017-Oct-13 19:30N 37°47' W 122°17'611.3
2017-Oct-13 18:59N 37°49' W 122°25'0 0.0
2017-Oct-13 18:29N 37°49' W 122°25'1 2.0
2017-Oct-13 18:00N 37°49' W 122°24'5 9.4
2017-Oct-13 17:29N 37°47' W 122°18'1 1.1
2017-Oct-13 17:00N 37°48' W 122°17'510.3
2017-Oct-13 16:30N 37°48' W 122°24'814.8
2017-Oct-13 15:58N 37°40' W 122°23'816.2
2017-Oct-13 15:30N 37°47' W 122°21'2 4.6
2017-Oct-13 15:00N 37°47' W 122°18'917.1
2017-Oct-13 14:30N 37°40' W 122°23'612.2
2017-Oct-13 14:00N 37°46' W 122°22'4 7.5
2017-Oct-13 13:30N 37°48' W 122°18'5 9.6
2017-Oct-13 12:59N 37°48' W 122°24'0 0.0
2017-Oct-13 03:21N 37°48' W 122°24'412.7
2017-Oct-13 03:00N 37°48' W 122°18'0 0.8
2017-Oct-13 02:31N 37°48' W 122°19'816.7
2017-Oct-13 02:00N 37°40' W 122°23'714.2
2017-Oct-13 01:30N 37°44' W 122°16'714.5
2017-Oct-13 01:01N 37°48' W 122°24'5 9.2
2017-Oct-13 00:30N 37°47' W 122°18'1 1.5
2017-Oct-13 00:00N 37°48' W 122°17'714.3
2017-Oct-12 23:31N 37°41' W 122°21'2 3.9
2017-Oct-12 23:00N 37°40' W 122°23'815.8
2017-Oct-12 22:31N 37°48' W 122°24'0 0.8
2017-Oct-12 22:00N 37°48' W 122°24'0 0.0
2017-Oct-12 21:30N 37°48' W 122°24'0 0.0
2017-Oct-12 21:00N 37°48' W 122°24'1 1.8
2017-Oct-12 20:30N 37°49' W 122°25'0 0.0
2017-Oct-12 20:00N 37°49' W 122°25'0 0.0
2017-Oct-12 19:30N 37°49' W 122°25'0 0.1
2017-Oct-12 19:00N 37°49' W 122°25'1 1.8
2017-Oct-12 18:30N 37°48' W 122°24'0 0.0
2017-Oct-12 18:00N 37°48' W 122°24'0 0.0
2017-Oct-12 17:30N 37°48' W 122°24'0 0.0
2017-Oct-12 17:00N 37°48' W 122°24'1 1.2
2017-Oct-12 16:31N 37°48' W 122°23'815.0
2017-Oct-12 15:59N 37°40' W 122°23'817.7
2017-Oct-12 15:30N 37°48' W 122°19'1 2.9
2017-Oct-12 15:00N 37°47' W 122°18'917.1
2017-Oct-12 14:30N 37°40' W 122°23'612.0
2017-Oct-12 14:00N 37°46' W 122°21'3 6.8
2017-Oct-12 13:30N 37°48' W 122°18'5 9.7
2017-Oct-12 12:59N 37°48' W 122°24'0 0.0
2017-Oct-12 03:19N 37°48' W 122°24'411.5
2017-Oct-12 03:01N 37°48' W 122°19'1 1.6
2017-Oct-12 02:31N 37°48' W 122°18'816.8
2017-Oct-12 02:00N 37°40' W 122°23'714.4
2017-Oct-12 01:31N 37°44' W 122°15'714.4
2017-Oct-12 01:00N 37°48' W 122°24'5 8.9
2017-Oct-12 00:29N 37°47' W 122°18'1 1.4
2017-Oct-11 23:59N 37°48' W 122°17'714.8
2017-Oct-11 23:30N 37°41' W 122°21'2 3.9
2017-Oct-11 22:59N 37°40' W 122°23'815.6
2017-Oct-11 22:29N 37°48' W 122°24'0 0.9
2017-Oct-11 21:59N 37°48' W 122°24'0 0.0
2017-Oct-11 21:29N 37°48' W 122°24'0 0.0
2017-Oct-11 20:59N 37°48' W 122°24'0 0.0
2017-Oct-11 20:29N 37°48' W 122°24'0 0.0
2017-Oct-11 19:59N 37°48' W 122°24'0 0.0
2017-Oct-11 19:29N 37°48' W 122°24'0 0.0
2017-Oct-11 18:59N 37°48' W 122°24'0 0.0
2017-Oct-11 18:29N 37°48' W 122°24'0 0.0
2017-Oct-11 17:59N 37°48' W 122°24'0 0.0
2017-Oct-11 17:29N 37°48' W 122°24'0 0.0
2017-Oct-11 16:59N 37°48' W 122°24'5 0.3
2017-Oct-11 00:01N 37°48' W 122°17'815.6
2017-Oct-10 23:31N 37°41' W 122°21'1 2.4
2017-Oct-10 23:00N 37°40' W 122°23'815.9
2017-Oct-10 22:30N 37°48' W 122°24'0 0.8
2017-Oct-10 21:58N 37°48' W 122°24'0 0.0
2017-Oct-10 21:28N 37°48' W 122°24'0 0.0
2017-Oct-10 20:58N 37°48' W 122°24'0 0.0
2017-Oct-10 20:25N 37°48' W 122°24'0 0.0
2017-Oct-10 19:58N 37°48' W 122°24'0 0.0
2017-Oct-10 19:25N 37°48' W 122°24'0 0.0
2017-Oct-10 18:52N 37°48' W 122°24'0 0.0
2017-Oct-10 18:25N 37°48' W 122°24'1 2.3
2017-Oct-10 18:00N 37°49' W 122°25'0 0.2
2017-Oct-10 17:30N 37°49' W 122°25'0 0.0
2017-Oct-10 17:00N 37°49' W 122°25'3 5.2
2017-Oct-10 16:30N 37°47' W 122°22'714.2
2017-Oct-10 16:00N 37°40' W 122°23'816.9
2017-Oct-10 15:30N 37°48' W 122°19'0 0.4
2017-Oct-10 15:00N 37°48' W 122°19'1 1.0
2017-Oct-10 14:00N 37°48' W 122°20'2 3.6
2017-Oct-10 13:29N 37°47' W 122°18'5 9.8
2017-Oct-10 12:59N 37°48' W 122°24'0 0.0
2017-Oct-10 03:18N 37°48' W 122°24'412.2
2017-Oct-10 03:01N 37°48' W 122°19'0 0.4
2017-Oct-10 02:31N 37°48' W 122°19'816.6
2017-Oct-10 02:00N 37°40' W 122°23'714.4
2017-Oct-10 01:31N 37°44' W 122°15'714.5
2017-Oct-10 01:00N 37°48' W 122°24'5 9.3
2017-Oct-10 00:30N 37°47' W 122°18'1 1.5
2017-Oct-10 00:01N 37°48' W 122°17'714.8
2017-Oct-09 23:31N 37°41' W 122°21'2 3.3
2017-Oct-09 23:01N 37°40' W 122°22'816.0
2017-Oct-09 22:31N 37°48' W 122°23'0 0.8
2017-Oct-09 22:00N 37°48' W 122°24'0 0.1
2017-Oct-09 21:30N 37°48' W 122°24'0 0.0
2017-Oct-09 21:00N 37°48' W 122°24'0 0.0
2017-Oct-09 20:31N 37°48' W 122°24'0 0.0
2017-Oct-09 20:00N 37°48' W 122°24'0 0.0
2017-Oct-09 19:30N 37°48' W 122°24'1 1.9
2017-Oct-09 19:00N 37°49' W 122°25'0 0.0
2017-Oct-09 18:30N 37°49' W 122°25'1 2.7
2017-Oct-09 18:01N 37°48' W 122°23'5 9.0
2017-Oct-09 17:30N 37°47' W 122°18'0 0.7
2017-Oct-09 17:00N 37°48' W 122°17'4 8.9
2017-Oct-09 16:31N 37°47' W 122°23'815.1
2017-Oct-09 16:00N 37°40' W 122°23'816.9
2017-Oct-09 15:31N 37°48' W 122°19'1 2.0
2017-Oct-09 15:01N 37°47' W 122°18'917.1
2017-Oct-09 14:30N 37°40' W 122°23'714.0
2017-Oct-09 14:01N 37°47' W 122°21'3 5.2
2017-Oct-09 13:31N 37°47' W 122°18'5 9.8
2017-Oct-09 13:01N 37°48' W 122°24'0 0.0
2017-Oct-09 02:50N 37°48' W 122°24'1 2.8
2017-Oct-09 02:30N 37°49' W 122°25'4 8.9
2017-Oct-09 02:01N 37°48' W 122°19'2 3.3
2017-Oct-09 01:30N 37°48' W 122°17'510.1
2017-Oct-09 01:01N 37°48' W 122°24'1 2.6
2017-Oct-09 00:30N 37°49' W 122°25'1 2.6
2017-Oct-09 00:01N 37°48' W 122°24'510.6
2017-Oct-08 23:31N 37°48' W 122°17'510.5
2017-Oct-08 23:00N 37°48' W 122°23'1 2.6
2017-Oct-08 22:30N 37°49' W 122°25'1 1.8
2017-Oct-08 22:00N 37°48' W 122°24'0 0.0
2017-Oct-08 21:30N 37°48' W 122°24'0 0.0
2017-Oct-07 03:23N 37°48' W 122°24'513.4
2017-Oct-07 03:00N 37°48' W 122°18'2 3.6
2017-Oct-07 02:31N 37°48' W 122°20'815.9
2017-Oct-07 01:59N 37°40' W 122°23'713.9
2017-Oct-07 01:28N 37°44' W 122°15'714.7
2017-Oct-07 00:58N 37°48' W 122°24'3 5.9
2017-Oct-07 00:30N 37°48' W 122°20'3 5.0
2017-Oct-06 23:59N 37°48' W 122°17'715.5
2017-Oct-06 23:30N 37°41' W 122°21'2 3.5
2017-Oct-06 23:01N 37°40' W 122°23'815.1
2017-Oct-06 22:29N 37°48' W 122°24'0 0.9
2017-Oct-06 22:00N 37°48' W 122°24'0 0.0
2017-Oct-06 21:30N 37°48' W 122°24'0 0.0
2017-Oct-06 21:00N 37°48' W 122°24'0 0.0
2017-Oct-06 20:30N 37°48' W 122°24'0 0.0
2017-Oct-06 19:57N 37°48' W 122°24'0 0.0
2017-Oct-06 19:27N 37°48' W 122°24'0 0.0
2017-Oct-06 18:57N 37°48' W 122°24'1 2.1
2017-Oct-06 18:30N 37°49' W 122°25'1 2.9
2017-Oct-06 18:00N 37°48' W 122°23'5 8.9
2017-Oct-06 17:30N 37°48' W 122°18'0 0.5
2017-Oct-06 17:00N 37°47' W 122°18'4 8.4
2017-Oct-06 16:30N 37°48' W 122°23'814.3
2017-Oct-06 15:58N 37°40' W 122°23'716.0
2017-Oct-06 15:30N 37°47' W 122°21'2 4.8
2017-Oct-06 15:00N 37°47' W 122°18'816.5
2017-Oct-06 14:30N 37°40' W 122°22'611.6
2017-Oct-06 14:00N 37°46' W 122°21'4 7.1
2017-Oct-06 13:31N 37°48' W 122°17'510.4
2017-Oct-06 13:00N 37°48' W 122°24'0 0.0
2017-Oct-06 03:23N 37°48' W 122°24'411.4
2017-Oct-06 03:01N 37°48' W 122°19'1 1.3
2017-Oct-06 02:31N 37°48' W 122°19'816.6
2017-Oct-06 02:00N 37°40' W 122°23'714.4
2017-Oct-06 01:30N 37°44' W 122°15'714.6
2017-Oct-06 01:01N 37°48' W 122°24'4 7.5
2017-Oct-06 00:31N 37°48' W 122°19'2 3.1
2017-Oct-06 00:00N 37°48' W 122°17'713.9
2017-Oct-05 23:30N 37°42' W 122°21'2 4.4
2017-Oct-05 23:00N 37°40' W 122°23'815.8
2017-Oct-05 22:30N 37°48' W 122°24'0 0.9
2017-Oct-05 22:00N 37°48' W 122°24'0 0.0
2017-Oct-05 21:30N 37°48' W 122°24'0 0.0
2017-Oct-05 20:59N 37°48' W 122°24'0 0.0
2017-Oct-05 20:29N 37°48' W 122°24'0 0.0
2017-Oct-05 19:59N 37°48' W 122°24'0 0.0
2017-Oct-05 19:29N 37°48' W 122°24'0 0.0
2017-Oct-05 18:59N 37°48' W 122°24'0 0.0
2017-Oct-05 18:29N 37°48' W 122°24'0 0.0
2017-Oct-05 17:59N 37°48' W 122°24'1 1.8
2017-Oct-05 17:30N 37°49' W 122°25'0 0.4
2017-Oct-05 17:00N 37°49' W 122°25'6 4.2
2017-Oct-05 15:28N 37°48' W 122°17'3 6.3
2017-Oct-05 15:00N 37°47' W 122°20'815.2
2017-Oct-05 14:29N 37°40' W 122°23'817.3
2017-Oct-05 14:00N 37°48' W 122°19'1 2.8
2017-Oct-05 13:29N 37°47' W 122°18'5 7.6
2017-Oct-05 12:50N 37°48' W 122°24'0 0.0
2017-Oct-05 03:28N 37°48' W 122°24'4 9.1
2017-Oct-05 03:01N 37°48' W 122°19'1 1.9
2017-Oct-05 02:31N 37°48' W 122°20'816.7
2017-Oct-05 02:01N 37°40' W 122°23'714.2
2017-Oct-05 01:30N 37°44' W 122°15'714.4
2017-Oct-05 01:00N 37°48' W 122°24'4 7.6
2017-Oct-05 00:31N 37°48' W 122°19'2 3.1
2017-Oct-05 00:01N 37°48' W 122°17'714.0
2017-Oct-04 23:31N 37°42' W 122°21'2 4.2
2017-Oct-04 23:01N 37°40' W 122°23'815.6
2017-Oct-04 22:30N 37°48' W 122°24'0 0.9
2017-Oct-04 22:00N 37°48' W 122°24'0 0.0
2017-Oct-04 21:30N 37°48' W 122°24'1 1.8
2017-Oct-04 21:00N 37°49' W 122°25'0 0.0
2017-Oct-04 20:30N 37°49' W 122°25'0 0.0
2017-Oct-04 20:00N 37°49' W 122°25'1 1.7
2017-Oct-04 19:29N 37°48' W 122°24'0 0.0
2017-Oct-04 18:53N 37°48' W 122°24'0 0.0
2017-Oct-04 18:26N 37°48' W 122°24'0 0.0
2017-Oct-04 17:59N 37°48' W 122°24'0 0.0
2017-Oct-04 17:29N 37°48' W 122°24'0 0.0
2017-Oct-04 16:59N 37°48' W 122°24'1 2.2
2017-Oct-04 16:30N 37°47' W 122°23'814.0
2017-Oct-04 15:58N 37°40' W 122°23'818.5
2017-Oct-04 15:30N 37°48' W 122°19'1 1.2
2017-Oct-04 15:01N 37°48' W 122°18'816.6
2017-Oct-04 14:30N 37°40' W 122°23'816.2
2017-Oct-04 14:01N 37°48' W 122°20'2 4.4
2017-Oct-04 13:30N 37°48' W 122°18'5 9.1
2017-Oct-04 12:58N 37°48' W 122°24'0 0.0
2017-Oct-04 03:20N 37°48' W 122°24'3 9.5
2017-Oct-04 03:01N 37°48' W 122°20'1 1.3
2017-Oct-04 02:31N 37°48' W 122°19'816.7
2017-Oct-04 02:00N 37°40' W 122°23'714.3
2017-Oct-04 01:31N 37°44' W 122°15'714.6
2017-Oct-04 01:00N 37°48' W 122°24'5 9.3
2017-Oct-04 00:30N 37°47' W 122°18'1 1.4
2017-Oct-04 00:00N 37°48' W 122°17'714.8
2017-Oct-03 23:30N 37°41' W 122°21'2 3.5
2017-Oct-03 23:00N 37°40' W 122°23'815.9
2017-Oct-03 22:30N 37°48' W 122°24'0 0.8
2017-Oct-03 22:00N 37°48' W 122°24'0 0.0
2017-Oct-03 21:30N 37°48' W 122°24'1 1.8
2017-Oct-03 21:00N 37°49' W 122°25'0 0.0
2017-Oct-03 20:29N 37°49' W 122°25'0 0.0
2017-Oct-03 19:59N 37°49' W 122°25'  

Dump ship's entire track history